Time;durP1;ratioP1;P1;durP2;ratioP2;P2;SDS_P1;SDS_P2;PMS_P1;PMS_P2;Temp;Humidity;BMP_temperature;BMP_pressure;BME280_temperature;BME280_humidity;BME280_pressure;Samples;Min_cycle;Max_cycle;Signal;HPM_P1;HPM_P2
2023/01/04 00:01:03;;;;;;;13.32;7.68;;;6.30;99.90;;;;;;5030274;28;20036;-77
2023/01/04 00:03:30;;;;;;;14.98;7.97;;;6.50;99.90;;;;;;5024268;28;20032;-76
2023/01/04 00:06:01;;;;;;;15.27;8.77;;;6.60;99.90;;;;;;5039130;28;20028;-77
2023/01/04 00:08:27;;;;;;;13.13;6.70;;;6.60;99.90;;;;;;5028146;28;20486;-76
2023/01/04 00:10:58;;;;;;;12.82;7.38;;;6.50;99.90;;;;;;5034661;28;20040;-76
2023/01/04 00:13:24;;;;;;;13.10;6.25;;;6.50;99.90;;;;;;5036136;28;20033;-76
2023/01/04 00:15:50;;;;;;;11.90;6.43;;;6.40;99.90;;;;;;5038807;28;20051;-76
2023/01/04 00:18:15;;;;;;;10.93;6.05;;;6.10;99.90;;;;;;5047521;28;20036;-76
2023/01/04 00:20:41;;;;;;;12.57;6.55;;;6.10;99.90;;;;;;5036623;28;20526;-75
2023/01/04 00:23:06;;;;;;;18.13;9.43;;;6.10;99.90;;;;;;5030168;28;20371;-76
2023/01/04 00:25:32;;;;;;;15.05;8.57;;;6.40;99.90;;;;;;5027586;28;20099;-76
2023/01/04 00:27:58;;;;;;;15.88;8.77;;;6.50;99.90;;;;;;5036543;28;20029;-76
2023/01/04 00:30:23;;;;;;;13.77;7.35;;;6.50;99.90;;;;;;5034181;28;20033;-76
2023/01/04 00:32:49;;;;;;;13.55;7.25;;;6.40;99.90;;;;;;5047779;28;20025;-76
2023/01/04 00:35:15;;;;;;;12.82;6.70;;;6.30;99.90;;;;;;5048140;28;20041;-76
2023/01/04 00:37:40;;;;;;;12.48;6.28;;;6.00;99.90;;;;;;5030664;28;20025;-76
2023/01/04 00:40:06;;;;;;;10.70;5.93;;;5.90;99.90;;;;;;5033431;28;20128;-75
2023/01/04 00:42:32;;;;;;;11.35;5.55;;;6.00;99.90;;;;;;5040524;28;20029;-76
2023/01/04 00:44:58;;;;;;;9.20;6.03;;;6.00;99.90;;;;;;5039065;28;20031;-76
2023/01/04 00:47:23;;;;;;;9.70;6.30;;;5.90;99.90;;;;;;5034363;28;20039;-76
2023/01/04 00:49:49;;;;;;;12.88;7.18;;;6.10;99.90;;;;;;5036681;28;20041;-76
2023/01/04 00:52:14;;;;;;;13.65;7.97;;;6.20;99.90;;;;;;5046006;28;20044;-76
2023/01/04 00:54:40;;;;;;;14.30;8.25;;;6.40;99.90;;;;;;5031421;28;20029;-76
2023/01/04 00:57:07;;;;;;;15.38;7.45;;;6.50;99.90;;;;;;5038219;28;20033;-76
2023/01/04 00:59:33;;;;;;;15.43;8.95;;;6.40;99.90;;;;;;5040125;28;20062;-76
2023/01/04 01:01:59;;;;;;;14.52;9.48;;;6.40;99.90;;;;;;5038795;28;20029;-76
2023/01/04 01:04:25;;;;;;;12.05;7.22;;;6.30;99.90;;;;;;5032143;28;20037;-76
2023/01/04 01:06:51;;;;;;;15.73;6.75;;;6.20;99.90;;;;;;5038536;28;20039;-76
2023/01/04 01:09:18;;;;;;;12.23;6.53;;;6.10;99.90;;;;;;5043976;28;20048;-76
2023/01/04 01:11:44;;;;;;;13.60;6.75;;;6.10;99.90;;;;;;5039592;28;20037;-76
2023/01/04 01:14:16;;;;;;;14.00;6.85;;;6.10;99.90;;;;;;5037246;28;20066;-76
2023/01/04 01:16:41;;;;;;;14.18;8.23;;;5.90;99.90;;;;;;5032472;28;20384;-76
2023/01/04 01:19:07;;;;;;;11.38;6.97;;;6.00;99.90;;;;;;5049487;28;20037;-76
2023/01/04 01:21:33;;;;;;;11.32;5.97;;;5.90;99.90;;;;;;5037290;28;20400;-75
2023/01/04 01:23:58;;;;;;;10.07;5.55;;;5.70;99.90;;;;;;5044667;28;20024;-76
2023/01/04 01:26:24;;;;;;;10.88;6.60;;;5.60;99.90;;;;;;5030905;28;20033;-76
2023/01/04 01:28:51;;;;;;;13.07;7.53;;;5.50;99.90;;;;;;5031658;28;20040;-76
2023/01/04 01:31:23;;;;;;;12.55;7.00;;;5.70;99.90;;;;;;5041376;28;20120;-76
2023/01/04 01:33:50;;;;;;;16.58;6.65;;;5.70;99.90;;;;;;5035753;28;20021;-76
2023/01/04 01:36:18;;;;;;;12.20;6.38;;;5.80;99.90;;;;;;5039008;28;20029;-76
2023/01/04 01:38:44;;;;;;;10.52;6.28;;;5.90;99.90;;;;;;5038253;28;20032;-76
2023/01/04 01:41:25;;;;;;;11.57;6.80;;;5.90;99.90;;;;;;5042486;28;20362;-75
2023/01/04 01:43:59;;;;;;;14.20;7.85;;;5.70;99.90;;;;;;5038314;28;20063;-75
2023/01/04 01:46:40;;;;;;;12.90;7.65;;;5.80;99.90;;;;;;5042573;28;20450;-75
2023/01/04 01:49:20;;;;;;;13.93;8.80;;;5.80;99.90;;;;;;5037657;28;20124;-76
2023/01/04 01:51:45;;;;;;;15.18;7.82;;;5.70;99.90;;;;;;5037245;28;20049;-76
2023/01/04 01:54:25;;;;;;;11.82;7.25;;;5.70;99.90;;;;;;5032519;28;20029;-76
2023/01/04 01:56:52;;;;;;;12.82;6.28;;;5.60;99.90;;;;;;5040470;28;20033;-76
2023/01/04 01:59:19;;;;;;;17.77;8.15;;;5.50;99.90;;;;;;5036666;28;20033;-75
2023/01/04 02:01:45;;;;;;;16.05;9.18;;;5.60;99.90;;;;;;5031593;28;20471;-76
2023/01/04 02:04:12;;;;;;;14.95;7.72;;;5.70;99.90;;;;;;5038434;28;20147;-76
2023/01/04 02:06:46;;;;;;;13.70;7.78;;;5.60;99.90;;;;;;5035751;28;20035;-76
2023/01/04 02:09:12;;;;;;;13.30;8.13;;;5.60;99.90;;;;;;5042732;28;20035;-76
2023/01/04 02:11:37;;;;;;;11.20;6.88;;;5.60;99.90;;;;;;5033276;28;20033;-76
2023/01/04 02:17:07;;;;;;;13.32;6.95;;;5.30;99.90;;;;;;5040397;28;20117;-76
2023/01/04 02:19:51;;;;;;;15.98;6.53;;;5.20;99.90;;;;;;5038932;28;20183;-76
2023/01/04 02:22:37;;;;;;;10.32;6.05;;;5.20;99.90;;;;;;5039917;28;20029;-76
2023/01/04 02:25:32;;;;;;;13.30;6.93;;;5.30;99.90;;;;;;5032464;28;20167;-76
2023/01/04 02:28:04;;;;;;;10.80;6.53;;;5.30;99.90;;;;;;5030966;28;20068;-76
2023/01/04 02:31:07;;;;;;;13.65;7.38;;;5.60;99.90;;;;;;5030496;28;20446;-76
2023/01/04 02:33:48;;;;;;;12.60;7.30;;;5.80;99.90;;;;;;5032634;28;20029;-75
2023/01/04 02:36:22;;;;;;;13.48;7.07;;;5.80;99.90;;;;;;5039889;28;20021;-75
2023/01/04 02:39:11;;;;;;;13.10;7.80;;;5.60;99.90;;;;;;5034164;28;20026;-75
2023/01/04 02:44:51;;;;;;;13.75;7.68;;;5.60;99.90;;;;;;5037934;28;20052;-76
2023/01/04 02:45:14;;;;;;;14.07;6.60;;;5.70;99.90;;;;;;5009160;28;20048;-76
2023/01/04 02:50:34;;;;;;;12.20;6.63;;;5.50;99.90;;;;;;5036686;28;20087;-76
2023/01/04 02:53:16;;;;;;;11.30;7.13;;;5.60;99.90;;;;;;5037830;28;20387;-76
2023/01/04 02:55:47;;;;;;;11.00;6.53;;;5.60;99.90;;;;;;5041314;28;20505;-75
2023/01/04 02:58:42;;;;;;;14.40;7.40;;;5.40;99.90;;;;;;5031219;28;20026;-76
2023/01/04 03:08:08;;;;;;;13.02;7.22;;;5.30;99.90;;;;;;5046753;28;20095;-76
2023/01/04 03:10:33;;;;;;;11.55;6.53;;;5.40;99.90;;;;;;5029138;28;20057;-76
2023/01/04 03:13:24;;;;;;;14.05;6.82;;;5.30;99.90;;;;;;5041195;28;20036;-76
2023/01/04 03:15:56;;;;;;;14.13;7.22;;;5.20;99.90;;;;;;5038256;28;20036;-75
2023/01/04 03:18:28;;;;;;;15.00;7.70;;;5.40;99.90;;;;;;5037055;28;20114;-75
2023/01/04 03:20:57;;;;;;;12.75;7.13;;;5.30;99.90;;;;;;5035026;28;20045;-75
2023/01/04 03:35:21;;;;;;;10.90;6.22;;;5.00;99.90;;;;;;5033496;28;20048;-76
2023/01/04 03:50:11;;;;;;;12.70;6.85;;;5.30;99.90;;;;;;5031627;28;19927;-75
2023/01/04 03:52:40;;;;;;;11.60;6.07;;;5.30;99.90;;;;;;5037607;28;20017;-76
2023/01/04 03:55:07;;;;;;;13.63;7.03;;;5.30;99.90;;;;;;5028888;28;20103;-76
2023/01/04 03:57:34;;;;;;;13.13;6.28;;;5.40;99.90;;;;;;5028169;28;20029;-76
2023/01/04 04:00:12;;;;;;;10.85;6.30;;;5.40;99.90;;;;;;5036829;28;20040;-75
2023/01/04 04:02:39;;;;;;;12.23;7.10;;;5.40;99.90;;;;;;5041642;28;20029;-75
2023/01/04 04:10:34;;;;;;;12.05;6.88;;;5.60;99.90;;;;;;5033983;28;20514;-76
2023/01/04 04:13:00;;;;;;;13.02;6.20;;;5.50;99.90;;;;;;5032792;28;20062;-76
2023/01/04 04:15:25;;;;;;;10.02;5.32;;;5.50;99.90;;;;;;5037706;28;20033;-76
2023/01/04 04:17:51;;;;;;;11.60;6.75;;;5.40;99.90;;;;;;5032647;28;20025;-76
2023/01/04 04:20:16;;;;;;;9.38;6.07;;;5.30;99.90;;;;;;5033046;28;20063;-76
2023/01/04 04:22:42;;;;;;;15.48;6.82;;;5.40;99.90;;;;;;5024534;28;20647;-75
2023/01/04 04:25:08;;;;;;;8.68;6.00;;;5.40;99.90;;;;;;5031875;28;20029;-77
2023/01/04 04:27:34;;;;;;;12.15;6.18;;;5.40;99.90;;;;;;5023611;28;20999;-76
2023/01/04 04:29:59;;;;;;;13.57;5.47;;;5.20;99.90;;;;;;5024322;28;20049;-76
2023/01/04 04:32:25;;;;;;;9.75;6.07;;;5.20;99.90;;;;;;5030686;28;20397;-76
2023/01/04 04:34:50;;;;;;;9.40;5.20;;;5.10;99.90;;;;;;5034965;28;20053;-76
2023/01/04 04:37:16;;;;;;;13.45;5.75;;;5.10;99.90;;;;;;5036169;28;20029;-75
2023/01/04 04:39:42;;;;;;;9.75;5.32;;;5.10;99.90;;;;;;5030535;28;20022;-77
2023/01/04 04:42:08;;;;;;;10.02;4.47;;;5.20;99.90;;;;;;5024436;28;20365;-76
2023/01/04 04:44:34;;;;;;;9.98;5.28;;;5.20;99.90;;;;;;5031348;28;20033;-76
2023/01/04 04:47:00;;;;;;;7.82;4.22;;;5.10;99.90;;;;;;5035745;28;20033;-77
2023/01/04 04:49:26;;;;;;;7.38;3.92;;;5.00;99.90;;;;;;5030146;28;20033;-76
2023/01/04 04:51:51;;;;;;;9.88;5.47;;;5.00;99.90;;;;;;5028553;28;20040;-76
2023/01/04 04:54:19;;;;;;;7.38;4.15;;;4.80;99.90;;;;;;5031488;28;20503;-76
2023/01/04 04:56:46;;;;;;;9.73;4.90;;;4.90;99.90;;;;;;5029848;28;20029;-76
2023/01/04 04:59:12;;;;;;;7.00;4.63;;;4.90;99.90;;;;;;5032996;28;20588;-77
2023/01/04 05:01:38;;;;;;;7.30;4.57;;;5.00;99.90;;;;;;5027794;28;20036;-77
2023/01/04 05:04:04;;;;;;;14.82;9.10;;;5.10;99.90;;;;;;5030229;28;20613;-76
2023/01/04 05:06:29;;;;;;;13.60;8.30;;;5.00;99.90;;;;;;5031981;28;20041;-76
2023/01/04 05:08:55;;;;;;;7.95;4.75;;;5.10;99.90;;;;;;5032641;28;20026;-77
2023/01/04 05:12:58;;;;;;;9.15;4.97;;;5.00;99.90;;;;;;5034124;28;20502;-77
2023/01/04 05:14:07;;;;;;;8.45;4.53;;;4.80;99.90;;;;;;5020386;28;20038;-77
2023/01/04 05:16:33;;;;;;;9.30;4.38;;;4.80;99.90;;;;;;5029315;28;20029;-76
2023/01/04 05:18:59;;;;;;;9.18;4.45;;;4.90;99.90;;;;;;5027096;28;20057;-77
2023/01/04 05:21:24;;;;;;;8.43;4.97;;;4.90;99.90;;;;;;5032127;28;20132;-76
2023/01/04 05:23:50;;;;;;;7.90;4.05;;;5.00;99.90;;;;;;5024426;28;20460;-75
2023/01/04 05:26:16;;;;;;;10.18;4.40;;;5.00;99.90;;;;;;5034204;28;20132;-77
2023/01/04 05:28:42;;;;;;;9.43;4.68;;;4.80;99.90;;;;;;5030780;28;20029;-77
2023/01/04 05:31:07;;;;;;;7.63;4.53;;;4.90;99.90;;;;;;5023771;28;20045;-76
2023/01/04 05:33:33;;;;;;;10.23;5.57;;;4.90;99.90;;;;;;5027684;28;20030;-76
2023/01/04 05:36:01;;;;;;;7.03;4.05;;;5.00;99.90;;;;;;5032599;28;20032;-76
2023/01/04 05:38:27;;;;;;;9.40;5.18;;;4.80;99.90;;;;;;5025111;28;20037;-76
2023/01/04 05:40:54;;;;;;;7.43;3.90;;;4.70;99.90;;;;;;5024713;28;20029;-76
2023/01/04 05:43:21;;;;;;;7.28;4.85;;;4.60;99.90;;;;;;5030213;28;20494;-77
2023/01/04 05:45:48;;;;;;;9.95;3.90;;;4.70;99.90;;;;;;5031443;28;20112;-76
2023/01/04 05:48:14;;;;;;;8.57;4.60;;;4.70;99.90;;;;;;5027215;28;20418;-75
2023/01/04 05:50:40;;;;;;;9.50;4.63;;;4.80;99.90;;;;;;5036172;28;20033;-76
2023/01/04 05:53:06;;;;;;;7.60;4.03;;;4.70;99.90;;;;;;5027244;28;20583;-75
2023/01/04 05:55:32;;;;;;;7.13;4.15;;;4.70;99.90;;;;;;5035946;28;20032;-75
2023/01/04 05:57:58;;;;;;;8.38;4.70;;;4.80;99.90;;;;;;5037224;28;20041;-76
2023/01/04 06:00:24;;;;;;;7.40;4.05;;;4.80;99.90;;;;;;5036535;28;20237;-76
2023/01/04 06:02:51;;;;;;;6.70;3.78;;;4.70;99.90;;;;;;5031095;28;20029;-77
2023/01/04 06:05:17;;;;;;;9.00;3.85;;;4.90;99.90;;;;;;5037949;28;20654;-76
2023/01/04 06:07:43;;;;;;;8.60;4.70;;;5.00;99.90;;;;;;5024604;28;20471;-76
2023/01/04 06:10:11;;;;;;;5.60;3.65;;;4.90;99.90;;;;;;5029565;28;20033;-76
2023/01/04 06:12:37;;;;;;;6.82;3.97;;;4.80;99.90;;;;;;5032929;28;20033;-76
2023/01/04 06:15:04;;;;;;;7.32;3.47;;;4.90;99.90;;;;;;5028272;28;20095;-76
2023/01/04 06:17:30;;;;;;;7.78;3.45;;;4.90;99.90;;;;;;5026945;28;20635;-75
2023/01/04 06:19:56;;;;;;;6.97;3.83;;;4.90;99.90;;;;;;5036634;28;20090;-76
2023/01/04 06:22:22;;;;;;;8.05;3.58;;;4.80;99.90;;;;;;5026440;28;20452;-76
2023/01/04 06:24:48;;;;;;;5.80;3.35;;;5.00;99.90;;;;;;5033628;28;20024;-77
2023/01/04 06:27:13;;;;;;;8.98;3.88;;;4.90;99.90;;;;;;5027590;28;20124;-76
2023/01/04 06:29:39;;;;;;;5.53;3.33;;;4.90;99.90;;;;;;5025100;28;20068;-75
2023/01/04 06:32:05;;;;;;;6.43;3.90;;;4.80;99.90;;;;;;5031361;28;20017;-76
2023/01/04 06:34:30;;;;;;;4.97;3.22;;;4.60;99.90;;;;;;5035619;28;20174;-75
2023/01/04 06:36:56;;;;;;;5.93;3.55;;;4.60;99.90;;;;;;5029588;28;20102;-75
2023/01/04 06:39:22;;;;;;;6.70;3.80;;;4.60;99.90;;;;;;5025370;28;20108;-75
2023/01/04 06:41:47;;;;;;;6.93;3.90;;;4.60;99.90;;;;;;5037597;28;20025;-76
2023/01/04 06:44:13;;;;;;;8.13;4.40;;;4.80;99.90;;;;;;5029282;28;20177;-76
2023/01/04 06:46:39;;;;;;;8.05;4.03;;;4.80;99.90;;;;;;5069539;28;20215;-76
2023/01/04 06:49:05;;;;;;;9.20;3.95;;;4.80;99.90;;;;;;5029736;28;20025;-77
2023/01/04 06:51:31;;;;;;;7.57;3.92;;;4.80;99.90;;;;;;5025150;28;20397;-76
2023/01/04 06:53:57;;;;;;;8.02;3.92;;;4.70;99.90;;;;;;5028806;28;20443;-76
2023/01/04 06:56:23;;;;;;;7.05;3.85;;;4.80;99.90;;;;;;5029557;28;20471;-75
2023/01/04 06:58:48;;;;;;;6.50;3.65;;;4.80;99.90;;;;;;5030852;28;20087;-76
2023/01/04 07:01:14;;;;;;;7.63;3.88;;;4.70;99.90;;;;;;5031577;28;20032;-76
2023/01/04 07:03:40;;;;;;;8.80;4.40;;;4.50;99.90;;;;;;5029044;28;20376;-76
2023/01/04 07:06:06;;;;;;;7.82;3.75;;;4.70;99.90;;;;;;5039776;28;20029;-76
2023/01/04 07:08:33;;;;;;;6.38;3.92;;;4.80;99.90;;;;;;5029699;28;20091;-76
2023/01/04 07:10:59;;;;;;;7.65;3.75;;;5.00;99.90;;;;;;5040425;28;20033;-76
2023/01/04 07:13:24;;;;;;;7.35;4.00;;;5.00;99.90;;;;;;5037462;28;20497;-76
2023/01/04 07:15:50;;;;;;;8.38;4.15;;;5.00;99.90;;;;;;5028845;28;20473;-76
2023/01/04 07:18:16;;;;;;;5.57;3.00;;;4.90;99.90;;;;;;5021397;28;20033;-75
2023/01/04 07:20:42;;;;;;;5.95;3.30;;;5.00;99.90;;;;;;5032394;28;20131;-76
2023/01/04 07:23:08;;;;;;;5.60;3.03;;;4.90;99.90;;;;;;5034220;28;21147;-76
2023/01/04 07:25:34;;;;;;;6.90;3.45;;;4.80;99.90;;;;;;5030174;28;20104;-76
2023/01/04 07:28:00;;;;;;;6.03;3.22;;;4.80;99.90;;;;;;5030597;28;20039;-76
2023/01/04 07:30:25;;;;;;;6.28;3.15;;;4.70;99.90;;;;;;5029710;28;20065;-76
2023/01/04 07:32:52;;;;;;;6.25;3.63;;;4.60;99.90;;;;;;5028067;28;20033;-75
2023/01/04 07:35:19;;;;;;;7.68;4.53;;;4.40;99.90;;;;;;5026967;28;20422;-75
2023/01/04 07:37:44;;;;;;;10.52;4.90;;;4.60;99.90;;;;;;5039673;28;20751;-77
2023/01/04 07:40:10;;;;;;;9.13;4.10;;;4.70;99.90;;;;;;5032503;28;20530;-78
2023/01/04 07:42:36;;;;;;;9.25;4.63;;;4.80;99.90;;;;;;5029811;28;20029;-75
2023/01/04 07:45:06;;;;;;;8.57;5.10;;;4.60;99.90;;;;;;5024490;28;20464;-75
2023/01/04 07:47:32;;;;;;;9.55;5.25;;;4.40;99.90;;;;;;5027976;28;20032;-75
2023/01/04 07:49:59;;;;;;;12.90;6.85;;;4.30;99.90;;;;;;5026238;28;20029;-74
2023/01/04 07:52:25;;;;;;;10.15;4.93;;;4.20;99.90;;;;;;5027051;28;20021;-75
2023/01/04 07:54:50;;;;;;;7.03;4.07;;;4.20;99.90;;;;;;5028988;28;20051;-76
2023/01/04 07:57:16;;;;;;;7.97;4.35;;;4.20;99.90;;;;;;5030375;28;20480;-74
2023/01/04 07:59:42;;;;;;;7.05;4.13;;;4.40;99.90;;;;;;5024955;28;20099;-75
2023/01/04 08:02:13;;;;;;;6.68;3.20;;;4.40;99.90;;;;;;5022900;28;20037;-75
2023/01/04 08:04:38;;;;;;;7.00;3.90;;;4.60;99.90;;;;;;5035271;28;20549;-76
2023/01/04 08:07:05;;;;;;;7.95;3.65;;;4.50;99.90;;;;;;5024613;28;20064;-75
2023/01/04 08:09:31;;;;;;;7.88;3.83;;;4.50;99.90;;;;;;5022511;28;20064;-76
2023/01/04 08:11:56;;;;;;;6.63;3.40;;;4.50;99.90;;;;;;5025418;28;20431;-75
2023/01/04 08:14:22;;;;;;;6.43;3.30;;;4.50;99.90;;;;;;5028485;28;20029;-76
2023/01/04 08:16:48;;;;;;;5.90;3.58;;;4.50;99.90;;;;;;5030834;28;20112;-75
2023/01/04 08:19:17;;;;;;;8.05;4.35;;;4.50;99.90;;;;;;5056558;28;20833;-75
2023/01/04 08:21:43;;;;;;;7.38;4.00;;;4.60;99.90;;;;;;5024529;28;20075;-76
2023/01/04 08:24:11;;;;;;;6.30;3.53;;;4.80;99.90;;;;;;5028103;28;20482;-76
2023/01/04 08:26:36;;;;;;;5.68;3.25;;;4.80;99.90;;;;;;5027681;28;20040;-75
2023/01/04 08:29:02;;;;;;;6.85;4.18;;;4.90;99.90;;;;;;5034856;28;20025;-74
2023/01/04 08:31:30;;;;;;;8.20;4.70;;;4.70;99.90;;;;;;5027560;28;20033;-74
2023/01/04 08:33:56;;;;;;;9.35;5.85;;;4.30;99.90;;;;;;5022069;28;20025;-76
2023/01/04 08:36:27;;;;;;;8.60;5.90;;;4.20;99.90;;;;;;5022825;28;20037;-76
2023/01/04 08:39:03;;;;;;;9.63;4.25;;;4.40;99.90;;;;;;5026782;28;20029;-76
2023/01/04 08:41:31;;;;;;;8.23;4.60;;;4.40;99.90;;;;;;5022061;28;20037;-76
2023/01/04 08:43:57;;;;;;;7.55;4.32;;;4.40;99.90;;;;;;5025078;28;20061;-75
2023/01/04 08:46:22;;;;;;;7.97;4.13;;;4.30;99.90;;;;;;5054972;28;20388;-76
2023/01/04 08:48:50;;;;;;;8.50;4.80;;;4.20;99.90;;;;;;5026632;28;20104;-75
2023/01/04 08:51:15;;;;;;;8.23;4.05;;;4.20;99.90;;;;;;5022925;28;20126;-75
2023/01/04 08:53:42;;;;;;;9.05;4.32;;;4.30;99.90;;;;;;5024190;28;21275;-74
2023/01/04 08:56:08;;;;;;;7.75;4.30;;;4.40;99.90;;;;;;5028758;28;20037;-74
2023/01/04 08:58:35;;;;;;;8.68;4.10;;;4.50;99.90;;;;;;5029623;28;20034;-75
2023/01/04 09:01:09;;;;;;;8.18;4.88;;;4.70;99.90;;;;;;5023091;28;20030;-75
2023/01/04 09:03:36;;;;;;;7.65;4.30;;;4.80;99.90;;;;;;5025743;28;20025;-74
2023/01/04 09:06:03;;;;;;;8.25;4.32;;;4.80;99.90;;;;;;5036493;28;20074;-74
2023/01/04 09:08:31;;;;;;;12.13;5.05;;;4.80;99.90;;;;;;5023676;28;20120;-74
2023/01/04 09:10:57;;;;;;;8.95;4.78;;;4.70;99.90;;;;;;5033943;28;20044;-75
2023/01/04 09:13:22;;;;;;;8.00;4.60;;;4.70;99.90;;;;;;5037730;28;20039;-76
2023/01/04 09:15:48;;;;;;;8.70;5.13;;;4.70;99.90;;;;;;5036677;28;20030;-74
2023/01/04 09:18:14;;;;;;;14.65;4.80;;;4.60;99.90;;;;;;5032280;28;20033;-74
2023/01/04 09:20:39;;;;;;;7.90;3.63;;;4.60;99.90;;;;;;5033027;28;20049;-75
2023/01/04 09:23:05;;;;;;;7.65;3.88;;;4.60;99.90;;;;;;5030792;28;20030;-74
2023/01/04 09:25:31;;;;;;;7.40;4.40;;;4.70;99.90;;;;;;5037439;28;20428;-74
2023/01/04 09:27:57;;;;;;;7.95;4.32;;;5.10;99.90;;;;;;5042689;28;20785;-74
2023/01/04 09:30:22;;;;;;;10.43;3.90;;;5.10;99.90;;;;;;5042449;28;20390;-74
2023/01/04 09:32:48;;;;;;;6.75;3.70;;;5.30;99.90;;;;;;5045188;28;20112;-74
2023/01/04 09:35:14;;;;;;;7.05;4.00;;;5.30;99.90;;;;;;5044866;28;20032;-75
2023/01/04 09:37:40;;;;;;;6.20;3.38;;;5.20;99.90;;;;;;5043368;28;20032;-74
2023/01/04 09:40:06;;;;;;;8.50;5.05;;;5.20;99.90;;;;;;5045241;28;20452;-74
2023/01/04 09:42:39;;;;;;;14.32;6.47;;;5.20;99.90;;;;;;5045490;28;20695;-74
2023/01/04 09:45:21;;;;;;;14.95;7.40;;;4.80;99.90;;;;;;5040079;28;20414;-75
2023/01/04 09:47:55;;;;;;;12.05;7.25;;;4.70;99.90;;;;;;5033969;28;20033;-74
2023/01/04 09:50:26;;;;;;;12.07;6.43;;;4.80;99.90;;;;;;5040771;28;20098;-75
2023/01/04 09:53:09;;;;;;;9.50;5.40;;;4.80;99.90;;;;;;5045278;28;20124;-75
2023/01/04 09:55:39;;;;;;;8.70;4.82;;;4.80;99.90;;;;;;5042320;28;20589;-75
2023/01/04 09:58:15;;;;;;;8.13;4.05;;;4.80;99.90;;;;;;5044917;28;20402;-75
2023/01/04 10:00:45;;;;;;;6.38;3.38;;;4.70;99.90;;;;;;5040315;28;20063;-74
2023/01/04 10:03:16;;;;;;;6.88;4.30;;;4.80;99.90;;;;;;5043406;28;20025;-75
2023/01/04 10:05:42;;;;;;;6.70;4.10;;;4.80;99.90;;;;;;5042724;28;20049;-75
2023/01/04 10:08:16;;;;;;;9.23;4.43;;;5.00;99.90;;;;;;5045521;28;20069;-75
2023/01/04 10:11:06;;;;;;;7.10;4.15;;;5.00;99.90;;;;;;5045792;28;20051;-74
2023/01/04 10:13:58;;;;;;;12.60;6.40;;;5.00;99.90;;;;;;5042804;28;20041;-74
2023/01/04 10:16:45;;;;;;;8.07;5.07;;;5.10;99.90;;;;;;5042375;28;20486;-74
2023/01/04 10:19:30;;;;;;;11.27;5.93;;;5.00;99.90;;;;;;5044673;28;20040;-74
2023/01/04 10:22:01;;;;;;;10.20;5.90;;;4.90;99.90;;;;;;5039578;28;20053;-74
2023/01/04 10:24:50;;;;;;;7.72;4.50;;;4.80;99.90;;;;;;5040776;28;20546;-75
2023/01/04 10:27:28;;;;;;;7.60;4.03;;;5.10;99.90;;;;;;5024415;28;20052;-76
2023/01/04 10:30:16;;;;;;;8.30;5.10;;;5.00;99.90;;;;;;5045460;28;20037;-76
2023/01/04 10:32:53;;;;;;;10.23;4.43;;;5.10;99.90;;;;;;5044868;28;20256;-75
2023/01/04 10:35:22;;;;;;;7.22;3.90;;;5.10;99.90;;;;;;5044348;28;20176;-74
2023/01/04 10:37:58;;;;;;;8.32;4.72;;;5.40;99.90;;;;;;5026245;28;20032;-76
2023/01/04 10:40:26;;;;;;;6.53;3.75;;;5.40;99.90;;;;;;5039426;28;20028;-76
2023/01/04 10:43:06;;;;;;;8.10;4.10;;;5.30;99.90;;;;;;5043584;28;20112;-76
2023/01/04 10:45:32;;;;;;;9.95;4.82;;;5.40;99.90;;;;;;5030420;28;20040;-77
2023/01/04 10:48:11;;;;;;;9.52;4.93;;;5.40;99.90;;;;;;5030476;28;20033;-77
2023/01/04 10:50:43;;;;;;;12.98;6.35;;;5.50;99.90;;;;;;5025774;28;20037;-76
2023/01/04 10:53:25;;;;;;;16.95;8.95;;;5.60;99.90;;;;;;5029971;28;20033;-75
2023/01/04 10:56:14;;;;;;;8.73;4.85;;;5.50;99.90;;;;;;5026876;28;20555;-75
2023/01/04 10:59:02;;;;;;;8.75;4.82;;;5.70;99.90;;;;;;5033600;28;20029;-76
2023/01/04 11:01:39;;;;;;;14.65;7.38;;;5.80;99.90;;;;;;5033467;28;20431;-76
2023/01/04 11:04:07;;;;;;;11.90;5.47;;;6.00;99.90;;;;;;5033005;28;20065;-77
2023/01/04 11:06:51;;;;;;;17.13;10.20;;;6.10;99.90;;;;;;5028028;28;20029;-76
2023/01/04 11:09:23;;;;;;;11.55;6.50;;;6.30;99.90;;;;;;5027861;28;20026;-75
2023/01/04 11:11:51;;;;;;;11.80;5.45;;;6.40;99.90;;;;;;5040010;28;20136;-76
2023/01/04 11:14:17;;;;;;;9.30;5.57;;;6.50;99.90;;;;;;5030242;28;20586;-75
2023/01/04 11:16:48;;;;;;;11.95;7.63;;;6.70;99.90;;;;;;5027005;28;20022;-75
2023/01/04 11:19:14;;;;;;;10.80;5.50;;;6.80;99.90;;;;;;5032937;28;20025;-76
2023/01/04 11:21:51;;;;;;;8.30;4.32;;;6.80;99.90;;;;;;5024069;28;20062;-75
2023/01/04 11:24:17;;;;;;;8.82;5.20;;;6.80;99.90;;;;;;5029936;28;20029;-75
2023/01/04 11:26:45;;;;;;;7.03;3.63;;;6.90;99.90;;;;;;5032990;28;20457;-76
2023/01/04 11:29:31;;;;;;;9.15;4.70;;;7.00;99.90;;;;;;5024356;28;20067;-76
2023/01/04 11:32:05;;;;;;;11.05;4.57;;;7.00;99.90;;;;;;5034142;28;20048;-76
2023/01/04 11:34:51;;;;;;;9.30;4.72;;;7.10;99.90;;;;;;5032475;28;20113;-76
2023/01/04 11:37:28;;;;;;;12.00;6.35;;;7.20;99.90;;;;;;5037427;28;20030;-76
2023/01/04 11:40:20;;;;;;;9.73;4.18;;;7.50;99.90;;;;;;5031953;28;20124;-75
2023/01/04 11:43:17;;;;;;;9.43;4.75;;;7.60;99.90;;;;;;5027846;28;20067;-76
2023/01/04 11:46:18;;;;;;;11.23;6.40;;;7.70;99.90;;;;;;5029838;28;20037;-75
2023/01/04 11:48:45;;;;;;;11.60;5.88;;;7.80;99.90;;;;;;5026799;28;20056;-75
2023/01/04 11:51:38;;;;;;;21.73;11.60;;;7.80;99.90;;;;;;5032605;28;20453;-76
2023/01/04 11:54:13;;;;;;;8.50;5.18;;;7.90;99.90;;;;;;5032888;28;20036;-76
2023/01/04 11:56:55;;;;;;;6.30;3.58;;;8.00;99.90;;;;;;5030018;28;20091;-76
2023/01/04 11:59:21;;;;;;;8.13;4.05;;;8.10;99.90;;;;;;5029206;28;20100;-76
2023/01/04 12:01:51;;;;;;;8.60;3.40;;;8.40;99.90;;;;;;5029551;28;20036;-76
2023/01/04 12:04:30;;;;;;;27.70;14.30;;;8.20;99.90;;;;;;5028521;28;20036;-76
2023/01/04 12:07:12;;;;;;;7.32;3.95;;;8.50;99.90;;;;;;5030018;28;20488;-78
2023/01/04 12:09:38;;;;;;;7.30;4.13;;;8.40;99.90;;;;;;5031519;28;20464;-76
2023/01/04 12:12:04;;;;;;;8.27;3.65;;;8.40;99.90;;;;;;5026603;28;20037;-75
2023/01/04 12:14:35;;;;;;;7.82;4.80;;;8.50;99.90;;;;;;5026058;28;20041;-76
2023/01/04 12:17:28;;;;;;;8.60;3.78;;;8.50;99.90;;;;;;5030508;28;20123;-77
2023/01/04 12:19:56;;;;;;;6.90;3.83;;;8.40;99.90;;;;;;5027113;28;20451;-78
2023/01/04 12:22:39;;;;;;;7.50;4.00;;;8.50;99.90;;;;;;5023532;28;20082;-77
2023/01/04 12:25:27;;;;;;;8.38;3.85;;;8.60;99.90;;;;;;5028086;28;20021;-77
2023/01/04 12:27:56;;;;;;;7.00;3.40;;;8.60;99.90;;;;;;5027118;28;20034;-79
2023/01/04 12:30:43;;;;;;;5.78;2.97;;;8.70;99.90;;;;;;5030523;28;20049;-75
2023/01/04 12:33:30;;;;;;;5.00;2.72;;;8.80;99.90;;;;;;5028427;28;20040;-78
2023/01/04 12:36:06;;;;;;;5.97;2.80;;;8.80;99.90;;;;;;5028693;28;20026;-77
2023/01/04 12:38:51;;;;;;;5.63;2.70;;;8.70;99.90;;;;;;5033080;28;20018;-80
2023/01/04 12:41:18;;;;;;;7.30;3.55;;;8.80;99.90;;;;;;5026964;28;20033;-78
2023/01/04 12:43:46;;;;;;;10.13;4.63;;;8.90;99.90;;;;;;5042700;28;20166;-77
2023/01/04 12:49:26;;;;;;;6.72;3.28;;;9.00;99.90;;;;;;5034983;28;20138;-82
2023/01/04 12:52:07;;;;;;;5.63;2.80;;;8.90;99.90;;;;;;5042883;28;20126;-78
2023/01/04 12:54:48;;;;;;;5.55;2.67;;;8.90;99.90;;;;;;5040046;28;20107;-79
2023/01/04 12:57:16;;;;;;;5.13;3.08;;;8.90;99.90;;;;;;5045864;28;20083;-78
2023/01/04 13:00:00;;;;;;;7.80;3.22;;;8.80;99.90;;;;;;5032348;28;20034;-78
2023/01/04 13:02:32;;;;;;;5.03;3.07;;;8.90;99.90;;;;;;5045927;28;20116;-80
2023/01/04 13:05:01;;;;;;;6.38;3.45;;;8.90;99.90;;;;;;5039968;28;20025;-78
2023/01/04 13:07:40;;;;;;;5.60;3.30;;;9.00;99.90;;;;;;5045566;28;20132;-77
2023/01/04 13:10:21;;;;;;;5.18;3.03;;;9.20;99.90;;;;;;5033119;28;20091;-77
2023/01/04 13:13:19;;;;;;;9.18;3.22;;;9.30;99.90;;;;;;5035628;28;20033;-78
2023/01/04 13:16:10;;;;;;;6.90;3.28;;;9.20;99.90;;;;;;5044340;28;20088;-78
2023/01/04 13:18:40;;;;;;;5.75;2.80;;;9.30;99.90;;;;;;5037024;28;20475;-79
2023/01/04 13:21:28;;;;;;;7.78;3.22;;;9.30;99.90;;;;;;5047411;28;20049;-79
2023/01/04 13:23:57;;;;;;;8.35;4.07;;;9.40;99.90;;;;;;5036054;28;20804;-78
2023/01/04 13:26:47;;;;;;;10.27;5.63;;;9.40;99.90;;;;;;5072547;28;20048;-78
2023/01/04 13:29:15;;;;;;;9.57;5.18;;;9.30;99.90;;;;;;5037349;28;20025;-77
2023/01/04 13:31:53;;;;;;;6.10;3.35;;;9.30;99.90;;;;;;5039569;28;20041;-78
2023/01/04 13:34:22;;;;;;;7.30;3.42;;;9.10;99.90;;;;;;5032833;28;20025;-78
2023/01/04 13:37:04;;;;;;;5.65;3.25;;;9.10;99.90;;;;;;5041549;28;20033;-77
2023/01/04 13:39:30;;;;;;;7.18;3.63;;;9.20;99.90;;;;;;5036676;28;20120;-76
2023/01/04 13:41:57;;;;;;;6.93;3.40;;;9.20;99.90;;;;;;5049151;28;20113;-76
2023/01/04 13:44:46;;;;;;;6.35;3.35;;;9.10;99.90;;;;;;5046167;28;20033;-76
2023/01/04 13:47:12;;;;;;;6.72;3.00;;;9.10;99.90;;;;;;5049873;28;20025;-77
2023/01/04 13:49:39;;;;;;;6.35;3.72;;;9.20;99.90;;;;;;5047326;28;20136;-76
2023/01/04 13:52:34;;;;;;;8.48;3.88;;;9.30;99.90;;;;;;5049888;28;20095;-76
2023/01/04 13:55:15;;;;;;;7.85;3.38;;;9.20;99.90;;;;;;5040408;28;20588;-76
2023/01/04 13:58:02;;;;;;;6.55;4.15;;;9.30;99.90;;;;;;5048359;28;20499;-76